createdAt,value
2023-02-04T00:02:02.279Z,17.90
2023-02-04T00:04:28.965Z,17.90
2023-02-04T00:06:55.523Z,17.90
2023-02-04T00:09:22.139Z,17.90
2023-02-04T00:11:48.741Z,17.90
2023-02-04T00:14:15.379Z,17.90
2023-02-04T00:16:42.045Z,17.90
2023-02-04T00:19:08.668Z,17.90
2023-02-04T00:21:35.301Z,17.90
2023-02-04T00:24:02.156Z,17.90
2023-02-04T00:26:28.818Z,17.90
2023-02-04T00:28:55.480Z,17.90
2023-02-04T00:31:22.212Z,17.90
2023-02-04T00:33:48.928Z,17.90
2023-02-04T00:36:15.509Z,17.90
2023-02-04T00:38:42.178Z,17.90
2023-02-04T00:41:08.812Z,17.90
2023-02-04T00:43:36.556Z,17.90
2023-02-04T00:46:03.198Z,17.90
2023-02-04T00:48:29.877Z,17.90
2023-02-04T00:50:56.555Z,17.90
2023-02-04T00:53:23.229Z,17.90
2023-02-04T00:55:49.858Z,17.90
2023-02-04T00:58:16.433Z,17.90
2023-02-04T01:00:43.104Z,17.90
2023-02-04T01:03:09.890Z,17.90
2023-02-04T01:05:36.656Z,17.90
2023-02-04T01:08:03.531Z,17.90
2023-02-04T01:10:30.477Z,17.90
2023-02-04T01:12:57.603Z,17.90
2023-02-04T01:15:24.235Z,17.90
2023-02-04T01:17:50.832Z,17.90
2023-02-04T01:20:17.627Z,17.90
2023-02-04T01:22:44.252Z,17.90
2023-02-04T01:25:10.850Z,17.90
2023-02-04T01:27:37.609Z,17.90
2023-02-04T01:30:05.642Z,17.90
2023-02-04T01:32:32.279Z,17.90
2023-02-04T01:34:58.924Z,17.80
2023-02-04T01:37:25.553Z,17.80
2023-02-04T01:39:52.261Z,17.80
2023-02-04T01:42:19.048Z,17.90
2023-02-04T01:44:46.191Z,17.90
2023-02-04T01:47:12.937Z,17.80
2023-02-04T01:49:39.609Z,17.80
2023-02-04T01:52:06.464Z,17.90
2023-02-04T01:54:33.200Z,17.90
2023-02-04T01:56:59.947Z,17.90
2023-02-04T01:59:27.327Z,17.80
2023-02-04T02:01:54.626Z,17.80
2023-02-04T02:04:32.317Z,17.80
2023-02-04T02:07:03.491Z,17.80
2023-02-04T02:09:31.955Z,17.80
2023-02-04T02:11:59.195Z,17.80
2023-02-04T02:14:25.885Z,17.80
2023-02-04T02:16:52.763Z,17.80
2023-02-04T02:19:33.635Z,17.80
2023-02-04T02:22:23.840Z,17.80
2023-02-04T02:24:50.510Z,17.80
2023-02-04T02:27:17.195Z,17.80
2023-02-04T02:29:44.190Z,17.80
2023-02-04T02:32:14.020Z,17.80
2023-02-04T02:34:42.566Z,17.80
2023-02-04T02:37:09.285Z,17.80
2023-02-04T02:39:38.292Z,17.80
2023-02-04T02:42:05.118Z,17.80
2023-02-04T02:44:32.815Z,17.80
2023-02-04T02:46:59.884Z,17.70
2023-02-04T02:49:28.376Z,17.80
2023-02-04T02:51:55.040Z,17.80
2023-02-04T02:54:25.111Z,17.80
2023-02-04T02:56:52.456Z,17.80
2023-02-04T02:59:19.555Z,17.80
2023-02-04T03:01:50.085Z,17.70
2023-02-04T03:04:17.607Z,17.70
2023-02-04T03:06:44.751Z,17.60
2023-02-04T03:09:12.072Z,17.70
2023-02-04T03:11:38.753Z,17.70
2023-02-04T03:14:06.016Z,17.70
2023-02-04T03:16:33.922Z,17.70
2023-02-04T03:19:01.687Z,17.70
2023-02-04T03:21:28.728Z,17.70
2023-02-04T03:23:56.680Z,17.70
2023-02-04T03:26:27.019Z,17.70
2023-02-04T03:28:54.508Z,17.70
2023-02-04T03:31:21.735Z,17.70
2023-02-04T03:33:48.446Z,17.70
2023-02-04T03:36:15.119Z,17.70
2023-02-04T03:38:41.769Z,17.70
2023-02-04T03:41:08.651Z,17.70
2023-02-04T03:43:35.260Z,17.70
2023-02-04T03:46:01.967Z,17.70
2023-02-04T03:48:28.572Z,17.70
2023-02-04T03:50:55.153Z,17.70
2023-02-04T03:53:22.094Z,17.70
2023-02-04T03:55:48.771Z,17.70
2023-02-04T03:58:15.439Z,17.70
2023-02-04T04:00:42.081Z,17.70
2023-02-04T04:03:09.039Z,17.70
2023-02-04T04:05:35.874Z,17.70
2023-02-04T04:08:02.460Z,17.70
2023-02-04T04:10:32.067Z,17.70
2023-02-04T04:12:58.888Z,17.70
2023-02-04T04:15:25.576Z,17.70
2023-02-04T04:17:52.179Z,17.70
2023-02-04T04:20:19.093Z,17.70
2023-02-04T04:22:45.793Z,17.70
2023-02-04T04:25:12.560Z,17.70
2023-02-04T04:27:39.239Z,17.70
2023-02-04T04:30:06.061Z,17.70
2023-02-04T04:32:32.745Z,17.70
2023-02-04T04:34:59.322Z,17.70
2023-02-04T04:37:26.127Z,17.70
2023-02-04T04:39:52.745Z,17.70
2023-02-04T04:42:19.380Z,17.70
2023-02-04T04:44:45.971Z,17.70
2023-02-04T04:47:12.603Z,17.60
2023-02-04T04:49:39.177Z,17.60
2023-02-04T04:52:05.862Z,17.60
2023-02-04T04:54:32.460Z,17.60
2023-02-04T04:56:59.036Z,17.60
2023-02-04T04:59:25.642Z,17.60
2023-02-04T05:01:52.245Z,17.60
2023-02-04T05:04:18.846Z,17.60
2023-02-04T05:06:45.858Z,17.60
2023-02-04T05:09:12.574Z,17.60
2023-02-04T05:11:39.190Z,17.60
2023-02-04T05:14:05.771Z,17.60
2023-02-04T05:16:32.450Z,17.60
2023-02-04T05:18:59.084Z,17.60
2023-02-04T05:23:52.700Z,17.60
2023-02-04T05:26:29.565Z,17.60
2023-02-04T05:28:57.277Z,17.60
2023-02-04T05:31:23.987Z,17.60
2023-02-04T05:33:50.654Z,17.60
2023-02-04T05:36:17.886Z,17.70
2023-02-04T05:38:44.502Z,17.60
2023-02-04T05:41:11.111Z,17.60
2023-02-04T05:43:37.772Z,17.60
2023-02-04T05:46:04.565Z,17.60
2023-02-04T05:48:31.367Z,17.60
2023-02-04T05:50:58.030Z,17.60
2023-02-04T05:53:26.171Z,17.60
2023-02-04T05:55:52.986Z,17.60
2023-02-04T05:58:19.849Z,17.60
2023-02-04T06:00:46.502Z,17.60
2023-02-04T06:03:14.406Z,17.60
2023-02-04T06:05:41.225Z,17.60
2023-02-04T06:08:07.868Z,17.60
2023-02-04T06:10:34.608Z,17.60
2023-02-04T06:13:01.243Z,17.60
2023-02-04T06:15:27.879Z,17.60
2023-02-04T06:17:54.554Z,17.50
2023-02-04T06:20:21.138Z,17.50
2023-02-04T06:22:51.481Z,17.50
2023-02-04T06:25:18.653Z,17.50
2023-02-04T06:27:45.336Z,17.60
2023-02-04T06:30:12.631Z,17.60
2023-02-04T06:32:39.275Z,17.60
2023-02-04T06:35:06.942Z,17.50
2023-02-04T06:37:33.555Z,17.50
2023-02-04T06:40:00.174Z,17.50
2023-02-04T06:42:26.797Z,17.60
2023-02-04T06:44:53.802Z,17.50
2023-02-04T06:47:20.762Z,17.60
2023-02-04T06:49:47.384Z,17.60
2023-02-04T06:52:14.002Z,17.50
2023-02-04T06:54:40.583Z,17.50
2023-02-04T06:57:07.302Z,17.50
2023-02-04T06:59:38.006Z,17.50
2023-02-04T07:02:06.926Z,17.50
2023-02-04T07:04:35.233Z,17.60
2023-02-04T07:07:01.868Z,17.60
2023-02-04T07:09:28.472Z,17.50
2023-02-04T07:11:55.068Z,17.60
2023-02-04T07:14:21.710Z,17.50
2023-02-04T07:16:48.280Z,17.60
2023-02-04T07:19:15.115Z,17.60
2023-02-04T07:21:41.692Z,17.60
2023-02-04T07:24:08.291Z,17.60
2023-02-04T07:26:35.301Z,17.60
2023-02-04T07:29:01.931Z,17.60
2023-02-04T07:31:28.624Z,17.60
2023-02-04T07:33:55.372Z,17.60
2023-02-04T07:36:22.138Z,17.60
2023-02-04T07:38:48.785Z,17.60
2023-02-04T07:41:15.375Z,17.70
2023-02-04T07:43:42.205Z,17.60
2023-02-04T07:46:09.818Z,17.60
2023-02-04T07:48:36.477Z,17.60
2023-02-04T07:51:03.381Z,17.60
2023-02-04T07:53:30.048Z,17.60
2023-02-04T07:55:56.691Z,17.70
2023-02-04T07:58:23.271Z,17.60
2023-02-04T08:00:49.896Z,17.70
2023-02-04T08:03:16.789Z,17.70
2023-02-04T08:05:43.426Z,17.70
2023-02-04T08:08:10.056Z,17.70
2023-02-04T08:10:36.734Z,17.70
2023-02-04T08:13:03.512Z,17.70
2023-02-04T08:15:30.124Z,17.70
2023-02-04T08:17:56.807Z,17.80
2023-02-04T08:20:23.755Z,17.80
2023-02-04T08:22:50.470Z,17.80
2023-02-04T08:25:17.122Z,17.80
2023-02-04T08:27:43.721Z,17.80
2023-02-04T08:30:11.028Z,17.80
2023-02-04T08:32:39.214Z,17.80
2023-02-04T08:35:07.158Z,17.80
2023-02-04T08:37:35.572Z,17.80
2023-02-04T08:40:03.442Z,17.90
2023-02-04T08:42:30.126Z,17.90
2023-02-04T08:44:56.726Z,17.80
2023-02-04T08:47:23.406Z,17.90
2023-02-04T08:49:50.008Z,17.90
2023-02-04T08:52:16.655Z,17.90
2023-02-04T08:54:43.335Z,17.90
2023-02-04T08:57:09.969Z,17.90
2023-02-04T08:59:36.560Z,18.00
2023-02-04T09:02:03.299Z,18.00
2023-02-04T09:04:30.064Z,18.10
2023-02-04T09:06:56.688Z,18.20
2023-02-04T09:09:25.340Z,18.20
2023-02-04T09:11:52.802Z,18.30
2023-02-04T09:14:19.417Z,18.30
2023-02-04T09:16:46.305Z,18.30
2023-02-04T09:19:16.169Z,18.30
2023-02-04T09:21:42.870Z,18.30
2023-02-04T09:24:09.463Z,18.30
2023-02-04T09:26:36.113Z,18.30
2023-02-04T09:29:02.722Z,18.10
2023-02-04T09:31:29.464Z,17.90
2023-02-04T09:33:56.374Z,17.70
2023-02-04T09:36:23.140Z,17.60
2023-02-04T09:38:49.769Z,17.50
2023-02-04T09:41:16.399Z,17.40
2023-02-04T09:43:44.891Z,17.40
2023-02-04T09:46:28.355Z,17.40
2023-02-04T09:48:55.918Z,17.50
2023-02-04T09:51:27.085Z,17.60
2023-02-04T09:53:55.575Z,17.70
2023-02-04T09:56:22.297Z,17.70
2023-02-04T09:58:49.229Z,17.70
2023-02-04T10:01:18.861Z,17.70
2023-02-04T10:03:48.148Z,17.80
2023-02-04T10:06:16.731Z,17.80
2023-02-04T10:08:44.695Z,17.80
2023-02-04T10:11:12.034Z,17.80
2023-02-04T10:13:44.934Z,17.80
2023-02-04T10:16:22.294Z,17.80
2023-02-04T10:18:49.304Z,17.80
2023-02-04T10:21:18.150Z,17.90
2023-02-04T10:23:48.536Z,17.90
2023-02-04T10:26:16.284Z,17.90
2023-02-04T10:28:43.743Z,17.80
2023-02-04T10:31:31.466Z,17.80
2023-02-04T10:34:15.558Z,17.80
2023-02-04T10:36:45.982Z,17.90
2023-02-04T10:39:19.012Z,17.90
2023-02-04T10:41:51.037Z,17.90
2023-02-04T10:44:27.165Z,17.90
2023-02-04T10:47:00.457Z,17.90
2023-02-04T10:49:27.083Z,17.90
2023-02-04T10:51:54.060Z,17.90
2023-02-04T10:54:30.472Z,17.90
2023-02-04T10:57:21.832Z,17.90
2023-02-04T10:59:50.996Z,17.90
2023-02-04T11:02:53.001Z,17.90
2023-02-04T11:05:25.847Z,17.90
2023-02-04T11:07:52.528Z,17.90
2023-02-04T11:10:24.742Z,17.90
2023-02-04T11:12:54.045Z,18.00
2023-02-04T11:15:41.132Z,18.00
2023-02-04T11:18:21.570Z,18.10
2023-02-04T11:20:50.002Z,18.10
2023-02-04T11:23:25.580Z,18.10
2023-02-04T11:26:18.885Z,18.10
2023-02-04T11:29:00.563Z,18.10
2023-02-04T11:31:27.311Z,18.10
2023-02-04T11:34:14.654Z,18.20
2023-02-04T11:37:04.845Z,18.30
2023-02-04T11:39:49.092Z,18.30
2023-02-04T11:42:26.628Z,18.20
2023-02-04T11:45:00.849Z,18.20
2023-02-04T11:47:33.560Z,18.30
2023-02-04T11:50:04.181Z,18.30
2023-02-04T11:52:30.846Z,18.30
2023-02-04T11:55:00.481Z,18.30
2023-02-04T11:57:27.806Z,18.30
2023-02-04T11:59:55.177Z,17.50
2023-02-04T12:02:25.907Z,18.30
2023-02-04T12:04:58.080Z,18.30
2023-02-04T12:07:27.944Z,18.30
2023-02-04T12:09:55.573Z,18.30
2023-02-04T12:12:28.660Z,18.30
2023-02-04T12:15:20.716Z,18.30
2023-02-04T12:17:59.738Z,18.30
2023-02-04T12:20:26.411Z,18.30
2023-02-04T12:22:53.206Z,18.30
2023-02-04T12:25:19.978Z,18.30
2023-02-04T12:27:46.621Z,18.30
2023-02-04T12:30:13.593Z,18.30
2023-02-04T12:32:40.190Z,18.30
2023-02-04T12:35:06.915Z,18.30
2023-02-04T12:37:33.590Z,18.40
2023-02-04T12:40:00.160Z,18.40
2023-02-04T12:42:26.761Z,18.40
2023-02-04T12:44:53.361Z,18.40
2023-02-04T12:47:19.989Z,18.40
2023-02-04T12:49:46.894Z,18.40
2023-02-04T12:52:13.660Z,18.50
2023-02-04T12:54:40.301Z,18.40
2023-02-04T12:57:06.943Z,18.40
2023-02-04T12:59:33.600Z,18.40
2023-02-04T13:02:00.281Z,18.40
2023-02-04T13:04:26.878Z,18.40
2023-02-04T13:06:53.438Z,18.40
2023-02-04T13:09:20.142Z,18.40
2023-02-04T13:11:46.796Z,18.50
2023-02-04T13:14:13.401Z,18.50
2023-02-04T13:16:39.978Z,18.50
2023-02-04T13:19:06.618Z,18.50
2023-02-04T13:21:33.198Z,20.40
2023-02-04T13:23:59.800Z,18.40
2023-02-04T13:26:26.504Z,18.40
2023-02-04T13:28:53.146Z,18.40
2023-02-04T13:31:19.816Z,18.40
2023-02-04T13:33:46.492Z,18.40
2023-02-04T13:36:13.077Z,18.40
2023-02-04T13:38:39.668Z,18.40
2023-02-04T13:41:06.317Z,18.40
2023-02-04T13:43:32.984Z,18.40
2023-02-04T13:46:00.102Z,18.40
2023-02-04T13:48:26.860Z,18.50
2023-02-04T13:53:20.632Z,18.40
2023-02-04T13:55:47.213Z,18.50
2023-02-04T13:58:13.989Z,18.40
2023-02-04T14:00:40.734Z,18.40
2023-02-04T14:03:07.371Z,18.60
2023-02-04T14:05:34.926Z,18.70
2023-02-04T14:08:01.535Z,18.60
2023-02-04T14:10:28.133Z,18.60
2023-02-04T14:12:55.186Z,18.60
2023-02-04T14:15:21.825Z,18.60
2023-02-04T14:17:48.469Z,18.50
2023-02-04T14:20:15.241Z,18.50
2023-02-04T14:22:41.838Z,18.50
2023-02-04T14:25:10.114Z,18.50
2023-02-04T14:27:38.349Z,18.50
2023-02-04T14:30:06.101Z,18.40
2023-02-04T14:32:32.718Z,18.40
2023-02-04T14:34:59.370Z,18.40
2023-02-04T14:37:28.365Z,18.50
2023-02-04T14:39:55.090Z,18.50
2023-02-04T14:42:21.679Z,18.50
2023-02-04T14:44:48.277Z,18.50
2023-02-04T14:47:14.869Z,18.50
2023-02-04T14:49:41.469Z,18.60
2023-02-04T14:52:10.257Z,18.60
2023-02-04T14:54:37.193Z,18.60
2023-02-04T14:57:03.989Z,18.60
2023-02-04T14:59:30.571Z,18.60
2023-02-04T15:01:57.205Z,18.60
2023-02-04T15:04:23.860Z,18.60
2023-02-04T15:06:53.800Z,18.60
2023-02-04T15:09:20.406Z,18.60
2023-02-04T15:11:47.017Z,18.60
2023-02-04T15:14:13.670Z,18.60
2023-02-04T15:16:41.928Z,18.60
2023-02-04T15:19:08.969Z,18.60
2023-02-04T15:21:35.638Z,18.50
2023-02-04T15:24:02.361Z,18.50
2023-02-04T15:26:28.948Z,18.50
2023-02-04T15:28:55.663Z,18.60
2023-02-04T15:31:23.697Z,18.50
2023-02-04T15:33:50.908Z,18.50
2023-02-04T15:36:17.503Z,18.50
2023-02-04T15:38:45.031Z,18.50
2023-02-04T15:41:11.769Z,18.50
2023-02-04T15:43:38.427Z,18.50
2023-02-04T15:46:05.173Z,18.50
2023-02-04T15:48:31.905Z,18.50
2023-02-04T15:50:58.490Z,18.50
2023-02-04T15:53:25.516Z,18.50
2023-02-04T15:55:52.143Z,18.50
2023-02-04T15:58:18.769Z,18.50
2023-02-04T16:00:45.392Z,18.50
2023-02-04T16:03:12.097Z,18.50
2023-02-04T16:05:38.690Z,18.50
2023-02-04T16:08:05.336Z,18.40
2023-02-04T16:10:32.267Z,18.50
2023-02-04T16:12:59.882Z,18.50
2023-02-04T16:15:26.503Z,18.40
2023-02-04T16:17:55.437Z,18.40
2023-02-04T16:20:22.068Z,18.40
2023-02-04T16:22:48.956Z,18.40
2023-02-04T16:25:16.742Z,18.50
2023-02-04T16:27:43.521Z,18.50
2023-02-04T16:30:11.775Z,18.50
2023-02-04T16:32:39.052Z,18.50
2023-02-04T16:35:06.670Z,18.50
2023-02-04T16:37:34.148Z,18.60
2023-02-04T16:40:00.965Z,18.70
2023-02-04T16:42:29.370Z,18.80
2023-02-04T16:44:55.976Z,18.90
2023-02-04T16:47:22.723Z,19.00
2023-02-04T16:49:49.648Z,19.00
2023-02-04T16:52:16.325Z,19.00
2023-02-04T16:54:44.000Z,19.00
2023-02-04T16:57:12.049Z,19.00
2023-02-04T16:59:38.656Z,19.00
2023-02-04T17:02:05.353Z,18.90
2023-02-04T17:04:32.378Z,18.90
2023-02-04T17:07:00.366Z,18.90
2023-02-04T17:09:27.436Z,18.90
2023-02-04T17:11:54.627Z,18.90
2023-02-04T17:14:22.515Z,18.90
2023-02-04T17:16:53.323Z,18.90
2023-02-04T17:19:21.140Z,18.90
2023-02-04T17:21:48.674Z,18.90
2023-02-04T17:24:15.370Z,18.80
2023-02-04T17:26:41.962Z,18.80
2023-02-04T17:29:11.563Z,18.80
2023-02-04T17:31:38.388Z,18.80
2023-02-04T17:34:06.065Z,18.80
2023-02-04T17:36:33.198Z,18.80
2023-02-04T17:38:59.859Z,18.70
2023-02-04T17:41:26.717Z,18.70
2023-02-04T17:43:53.826Z,18.60
2023-02-04T17:46:20.719Z,18.60
2023-02-04T17:48:47.523Z,18.60
2023-02-04T17:51:14.475Z,18.60
2023-02-04T17:53:41.299Z,18.60
2023-02-04T17:56:12.813Z,18.60
2023-02-04T17:58:39.965Z,18.60
2023-02-04T18:01:18.690Z,18.50
2023-02-04T18:03:46.266Z,18.50
2023-02-04T18:06:29.452Z,18.50
2023-02-04T18:09:01.455Z,18.50
2023-02-04T18:11:32.955Z,18.50
2023-02-04T18:14:02.499Z,18.50
2023-02-04T18:16:31.905Z,18.50
2023-02-04T18:19:16.897Z,18.50
2023-02-04T18:21:43.792Z,18.60
2023-02-04T18:24:39.459Z,18.70
2023-02-04T18:27:16.835Z,18.70
2023-02-04T18:29:46.788Z,18.80
2023-02-04T18:32:37.596Z,18.80
2023-02-04T18:35:32.735Z,18.80
2023-02-04T18:38:00.531Z,18.80
2023-02-04T18:40:31.037Z,17.10
2023-02-04T18:43:09.412Z,18.70
2023-02-04T18:45:36.327Z,18.60
2023-02-04T18:48:21.121Z,18.60
2023-02-04T18:50:49.591Z,18.60
2023-02-04T18:53:16.413Z,18.60
2023-02-04T18:55:50.970Z,18.60
2023-02-04T18:58:32.823Z,18.60
2023-02-04T19:01:01.879Z,18.60
2023-02-04T19:03:31.282Z,18.60
2023-02-04T19:06:01.542Z,18.60
2023-02-04T19:08:44.172Z,18.50
2023-02-04T19:11:46.956Z,18.50
2023-02-04T19:14:36.274Z,18.50
2023-02-04T19:17:21.125Z,18.50
2023-02-04T19:20:16.559Z,18.50
2023-02-04T19:22:49.461Z,18.50
2023-02-04T19:25:29.712Z,18.50
2023-02-04T19:27:59.216Z,18.50
2023-02-04T19:30:28.494Z,16.80
2023-02-04T19:32:57.414Z,18.40
2023-02-04T19:35:28.981Z,18.40
2023-02-04T19:37:57.883Z,18.40
2023-02-04T19:40:31.308Z,18.40
2023-02-04T19:43:22.638Z,18.40
2023-02-04T19:45:51.030Z,18.40
2023-02-04T19:48:52.727Z,18.40
2023-02-04T19:51:21.028Z,18.40
2023-02-04T19:53:51.913Z,18.40
2023-02-04T19:56:34.957Z,18.40
2023-02-04T19:59:26.369Z,18.40
2023-02-04T20:02:14.649Z,18.40
2023-02-04T20:04:44.958Z,18.30
2023-02-04T20:07:19.952Z,18.40
2023-02-04T20:09:46.936Z,18.30
2023-02-04T20:12:17.751Z,18.40
2023-02-04T20:14:58.377Z,18.30
2023-02-04T20:17:45.721Z,18.30
2023-02-04T20:20:14.948Z,18.30
2023-02-04T20:22:49.264Z,18.30
2023-02-04T20:25:21.848Z,18.30
2023-02-04T20:27:55.033Z,18.30
2023-02-04T20:30:27.480Z,18.30
2023-02-04T20:32:58.473Z,18.30
2023-02-04T20:35:33.883Z,18.30
2023-02-04T20:38:11.140Z,18.30
2023-02-04T20:40:37.913Z,18.30
2023-02-04T20:43:11.955Z,18.30
2023-02-04T20:45:49.906Z,18.30
2023-02-04T20:48:16.478Z,18.30
2023-02-04T20:50:48.133Z,18.30
2023-02-04T20:53:20.122Z,18.30
2023-02-04T20:56:03.616Z,18.30
2023-02-04T20:58:38.941Z,18.30
2023-02-04T21:01:24.015Z,18.30
2023-02-04T21:03:53.475Z,18.30
2023-02-04T21:06:31.441Z,18.30
2023-02-04T21:08:59.502Z,18.20
2023-02-04T21:11:26.628Z,18.20
2023-02-04T21:13:54.650Z,18.20
2023-02-04T21:16:21.696Z,18.20
2023-02-04T21:18:48.352Z,18.20
2023-02-04T21:21:15.303Z,18.30
2023-02-04T21:23:42.041Z,18.20
2023-02-04T21:26:08.717Z,18.30
2023-02-04T21:28:35.547Z,18.30
2023-02-04T21:31:03.004Z,18.30
2023-02-04T21:33:29.928Z,18.30
2023-02-04T21:35:56.653Z,18.30
2023-02-04T21:38:23.347Z,18.30
2023-02-04T21:40:49.973Z,18.30
2023-02-04T21:43:16.624Z,18.20
2023-02-04T21:45:43.350Z,18.30
2023-02-04T21:48:10.037Z,18.30
2023-02-04T21:50:38.475Z,18.20
2023-02-04T21:53:06.881Z,18.20
2023-02-04T21:55:34.332Z,18.20
2023-02-04T21:58:01.576Z,18.20
2023-02-04T22:00:28.448Z,18.20
2023-02-04T22:02:55.180Z,18.30
2023-02-04T22:05:22.607Z,18.20
2023-02-04T22:07:49.824Z,18.40
2023-02-04T22:10:19.636Z,18.20
2023-02-04T22:12:46.443Z,18.20
2023-02-04T22:15:16.739Z,18.20
2023-02-04T22:17:44.177Z,18.30
2023-02-04T22:20:12.410Z,18.20
2023-02-04T22:22:39.083Z,18.20
2023-02-04T22:25:06.662Z,18.20
2023-02-04T22:27:33.251Z,18.30
2023-02-04T22:30:02.913Z,18.20
2023-02-04T22:32:30.169Z,18.20
2023-02-04T22:34:57.047Z,18.20
2023-02-04T22:37:23.774Z,18.20
2023-02-04T22:39:50.613Z,18.20
2023-02-04T22:42:17.241Z,18.20
2023-02-04T22:44:44.112Z,18.20
2023-02-04T22:47:10.796Z,18.20
2023-02-04T22:49:37.424Z,18.20
2023-02-04T22:52:04.756Z,18.20
2023-02-04T22:54:31.737Z,18.20
2023-02-04T22:57:00.233Z,18.20
2023-02-04T22:59:27.959Z,18.20
2023-02-04T23:01:55.874Z,18.20
2023-02-04T23:04:22.757Z,18.20
2023-02-04T23:06:50.506Z,18.20
2023-02-04T23:09:17.213Z,18.20
2023-02-04T23:11:43.889Z,18.20
2023-02-04T23:14:10.861Z,18.10
2023-02-04T23:16:37.521Z,18.20
2023-02-04T23:19:04.225Z,18.10
2023-02-04T23:21:31.978Z,18.10
2023-02-04T23:23:59.323Z,18.10
2023-02-04T23:26:26.416Z,18.10
2023-02-04T23:28:53.054Z,18.10
2023-02-04T23:31:19.685Z,18.10
2023-02-04T23:33:46.309Z,18.10
2023-02-04T23:36:12.995Z,18.10
2023-02-04T23:38:39.623Z,18.10
2023-02-04T23:41:06.250Z,18.10
2023-02-04T23:43:32.913Z,18.10
2023-02-04T23:46:00.124Z,18.10
2023-02-04T23:48:27.008Z,18.10
2023-02-04T23:50:56.948Z,18.10
2023-02-04T23:53:24.139Z,18.10
2023-02-04T23:55:51.390Z,18.10
2023-02-04T23:58:18.069Z,18.10
